createdAt,value
2023-05-19T00:01:53.412Z,3.63
2023-05-19T00:04:21.335Z,3.00
2023-05-19T00:06:51.119Z,3.33
2023-05-19T00:09:18.174Z,3.10
2023-05-19T00:11:45.112Z,3.17
2023-05-19T00:14:12.034Z,2.92
2023-05-19T00:16:39.320Z,2.90
2023-05-19T00:19:06.637Z,2.97
2023-05-19T00:21:33.557Z,2.90
2023-05-19T00:24:00.339Z,3.10
2023-05-19T00:26:27.750Z,3.15
2023-05-19T00:28:54.514Z,3.27
2023-05-19T00:31:21.404Z,3.25
2023-05-19T00:33:48.198Z,3.22
2023-05-19T00:36:15.041Z,2.78
2023-05-19T00:38:41.772Z,3.03
2023-05-19T00:41:08.533Z,3.13
2023-05-19T00:43:35.409Z,2.97
2023-05-19T00:46:02.358Z,2.80
2023-05-19T00:48:29.272Z,3.25
2023-05-19T00:51:07.421Z,3.15
2023-05-19T00:53:34.367Z,3.20
2023-05-19T00:56:01.293Z,3.05
2023-05-19T00:58:30.418Z,3.10
2023-05-19T01:01:03.842Z,3.00
2023-05-19T01:03:35.728Z,3.08
2023-05-19T01:06:07.520Z,2.50
2023-05-19T01:08:35.183Z,3.10
2023-05-19T01:11:01.940Z,2.78
2023-05-19T01:13:28.780Z,2.70
2023-05-19T01:16:25.146Z,2.63
2023-05-19T01:19:11.037Z,3.17
2023-05-19T01:21:56.620Z,2.60
2023-05-19T01:24:23.329Z,2.80
2023-05-19T01:27:14.934Z,2.97
2023-05-19T01:30:03.193Z,2.95
2023-05-19T01:32:29.896Z,3.13
2023-05-19T01:34:56.758Z,2.75
2023-05-19T01:37:23.535Z,3.08
2023-05-19T01:39:50.508Z,3.10
2023-05-19T01:42:17.296Z,3.38
2023-05-19T01:44:44.239Z,3.20
2023-05-19T01:47:11.180Z,2.80
2023-05-19T01:49:38.077Z,3.17
2023-05-19T01:52:05.079Z,2.90
2023-05-19T01:54:31.818Z,2.90
2023-05-19T01:57:19.699Z,3.00
2023-05-19T01:59:56.957Z,3.08
2023-05-19T02:02:32.220Z,2.67
2023-05-19T02:05:03.212Z,2.67
2023-05-19T02:07:42.501Z,3.08
2023-05-19T02:10:15.215Z,3.20
2023-05-19T02:12:41.985Z,2.80
2023-05-19T02:15:12.054Z,3.35
2023-05-19T02:17:41.652Z,2.90
2023-05-19T02:20:12.025Z,3.00
2023-05-19T02:22:38.994Z,2.97
2023-05-19T02:25:06.105Z,2.67
2023-05-19T02:27:33.944Z,3.05
2023-05-19T02:30:00.771Z,2.88
2023-05-19T02:32:27.662Z,3.20
2023-05-19T02:34:56.589Z,2.93
2023-05-19T02:37:28.655Z,3.50
2023-05-19T02:39:55.639Z,3.40
2023-05-19T02:42:22.463Z,3.00
2023-05-19T02:44:49.314Z,3.22
2023-05-19T02:47:16.032Z,2.83
2023-05-19T02:49:44.192Z,3.13
2023-05-19T02:52:12.152Z,3.03
2023-05-19T02:54:38.935Z,3.47
2023-05-19T02:57:05.713Z,3.30
2023-05-19T02:59:32.410Z,3.07
2023-05-19T03:02:02.431Z,3.40
2023-05-19T03:04:29.922Z,3.22
2023-05-19T03:06:57.722Z,3.80
2023-05-19T03:09:24.638Z,3.58
2023-05-19T03:11:51.477Z,3.30
2023-05-19T03:14:18.836Z,3.50
2023-05-19T03:16:45.989Z,3.15
2023-05-19T03:19:13.013Z,3.72
2023-05-19T03:21:39.839Z,3.40
2023-05-19T03:24:07.209Z,3.70
2023-05-19T03:26:33.976Z,3.55
2023-05-19T03:29:01.074Z,3.65
2023-05-19T03:31:28.503Z,3.40
2023-05-19T03:33:55.376Z,3.78
2023-05-19T03:36:22.691Z,3.80
2023-05-19T03:38:49.539Z,3.30
2023-05-19T03:41:16.380Z,3.38
2023-05-19T03:43:43.232Z,3.55
2023-05-19T03:46:10.104Z,3.17
2023-05-19T03:48:36.969Z,3.17
2023-05-19T03:51:04.486Z,3.25
2023-05-19T03:53:31.276Z,3.30
2023-05-19T03:55:58.066Z,2.92
2023-05-19T03:58:24.996Z,2.97
2023-05-19T04:00:51.952Z,2.80
2023-05-19T04:03:18.878Z,2.28
2023-05-19T04:05:45.754Z,2.40
2023-05-19T04:08:12.555Z,2.40
2023-05-19T04:10:39.374Z,2.60
2023-05-19T04:13:06.293Z,2.10
2023-05-19T04:15:33.160Z,2.03
2023-05-19T04:17:59.992Z,2.25
2023-05-19T04:20:26.843Z,1.90
2023-05-19T04:22:53.655Z,1.90
2023-05-19T04:25:20.585Z,1.43
2023-05-19T04:27:48.597Z,1.60
2023-05-19T04:30:22.340Z,1.48
2023-05-19T04:32:50.995Z,1.75
2023-05-19T04:35:17.971Z,1.60
2023-05-19T04:37:48.544Z,1.80
2023-05-19T04:40:16.120Z,1.80
2023-05-19T04:42:45.859Z,1.50
2023-05-19T04:45:14.126Z,1.40
2023-05-19T04:47:42.081Z,1.30
2023-05-19T04:50:11.189Z,1.80
2023-05-19T04:52:38.087Z,1.42
2023-05-19T04:55:05.265Z,1.30
2023-05-19T04:57:32.224Z,1.38
2023-05-19T05:00:00.469Z,1.67
2023-05-19T05:02:30.126Z,1.70
2023-05-19T05:04:56.985Z,1.50
2023-05-19T05:07:23.977Z,1.38
2023-05-19T05:09:50.941Z,1.70
2023-05-19T05:12:18.900Z,1.33
2023-05-19T05:14:46.148Z,1.60
2023-05-19T05:17:13.840Z,1.70
2023-05-19T05:19:40.981Z,1.58
2023-05-19T05:22:08.208Z,1.80
2023-05-19T05:24:35.388Z,1.30
2023-05-19T05:27:02.216Z,1.80
2023-05-19T05:29:29.041Z,1.60
2023-05-19T05:31:56.042Z,1.40
2023-05-19T05:34:22.872Z,1.33
2023-05-19T05:36:49.806Z,1.52
2023-05-19T05:39:16.615Z,1.50
2023-05-19T05:41:43.438Z,1.15
2023-05-19T05:44:10.355Z,1.48
2023-05-19T05:46:37.336Z,1.20
2023-05-19T05:49:04.377Z,1.30
2023-05-19T05:51:33.028Z,1.40
2023-05-19T05:54:00.003Z,1.42
2023-05-19T05:56:27.804Z,1.85
2023-05-19T05:58:54.644Z,0.98
2023-05-19T06:01:22.025Z,1.30
2023-05-19T06:03:48.879Z,1.60
2023-05-19T06:06:15.787Z,1.63
2023-05-19T06:08:42.628Z,1.40
2023-05-19T06:11:09.607Z,1.50
2023-05-19T06:13:36.771Z,1.40
2023-05-19T06:16:03.846Z,1.40
2023-05-19T06:18:30.762Z,1.60
2023-05-19T06:20:57.600Z,1.77
2023-05-19T06:23:25.349Z,1.80
2023-05-19T06:25:52.366Z,1.60
2023-05-19T06:28:19.180Z,1.67
2023-05-19T06:30:46.069Z,1.33
2023-05-19T06:33:12.899Z,1.67
2023-05-19T06:35:39.842Z,1.63
2023-05-19T06:38:07.922Z,1.65
2023-05-19T06:40:35.059Z,1.77
2023-05-19T06:43:02.091Z,1.50
2023-05-19T06:45:29.084Z,2.00
2023-05-19T06:47:58.467Z,2.15
2023-05-19T06:50:25.701Z,1.92
2023-05-19T06:52:52.722Z,1.13
2023-05-19T06:55:19.757Z,1.52
2023-05-19T06:57:46.621Z,2.10
2023-05-19T07:00:16.784Z,1.88
2023-05-19T07:02:45.237Z,2.03
2023-05-19T07:05:12.200Z,1.73
2023-05-19T07:07:39.099Z,1.98
2023-05-19T07:10:06.563Z,1.77
2023-05-19T07:12:33.387Z,1.55
2023-05-19T07:15:00.308Z,1.88
2023-05-19T07:17:27.140Z,1.80
2023-05-19T07:19:54.054Z,1.80
2023-05-19T07:22:21.346Z,1.75
2023-05-19T07:24:48.185Z,1.73
2023-05-19T07:27:15.115Z,1.75
2023-05-19T07:29:41.962Z,2.17
2023-05-19T07:32:08.877Z,1.83
2023-05-19T07:34:35.791Z,1.92
2023-05-19T07:37:03.513Z,1.67
2023-05-19T07:39:32.392Z,1.42
2023-05-19T07:41:59.401Z,1.80
2023-05-19T07:44:27.254Z,1.52
2023-05-19T07:46:54.662Z,1.17
2023-05-19T07:49:21.486Z,1.40
2023-05-19T07:51:48.799Z,1.77
2023-05-19T07:54:15.630Z,1.00
2023-05-19T07:56:42.458Z,1.15
2023-05-19T07:59:09.396Z,1.67
2023-05-19T08:01:36.296Z,1.42
2023-05-19T08:04:03.549Z,1.55
2023-05-19T08:06:31.834Z,1.33
2023-05-19T08:08:58.738Z,1.58
2023-05-19T08:11:25.901Z,1.15
2023-05-19T08:13:52.846Z,1.50
2023-05-19T08:16:19.796Z,1.23
2023-05-19T08:18:46.727Z,1.57
2023-05-19T08:21:13.562Z,1.45
2023-05-19T08:23:40.510Z,1.58
2023-05-19T08:26:07.404Z,1.70
2023-05-19T08:28:34.385Z,1.70
2023-05-19T08:31:01.317Z,1.50
2023-05-19T08:33:28.433Z,1.55
2023-05-19T08:35:58.182Z,1.42
2023-05-19T08:38:26.387Z,1.63
2023-05-19T08:40:53.338Z,1.50
2023-05-19T08:43:20.258Z,1.47
2023-05-19T08:45:48.462Z,1.30
2023-05-19T08:48:16.993Z,1.40
2023-05-19T08:50:47.429Z,1.42
2023-05-19T08:53:32.513Z,1.80
2023-05-19T08:56:22.614Z,1.70
2023-05-19T08:58:50.235Z,1.88
2023-05-19T09:01:17.802Z,1.65
2023-05-19T09:03:49.910Z,1.75
2023-05-19T09:06:17.178Z,1.48
2023-05-19T09:08:44.117Z,1.10
2023-05-19T09:11:11.095Z,1.40
2023-05-19T09:13:37.841Z,1.30
2023-05-19T09:16:04.763Z,1.73
2023-05-19T09:18:31.864Z,1.60
2023-05-19T09:21:00.350Z,1.70
2023-05-19T09:23:36.368Z,1.30
2023-05-19T09:26:04.508Z,1.70
2023-05-19T09:28:33.412Z,1.80
2023-05-19T09:31:04.640Z,1.20
2023-05-19T09:33:33.807Z,1.50
2023-05-19T09:36:00.746Z,1.60
2023-05-19T09:38:27.840Z,1.50
2023-05-19T09:40:57.253Z,1.70
2023-05-19T09:43:24.180Z,1.50
2023-05-19T09:46:12.955Z,1.40
2023-05-19T09:48:41.121Z,1.48
2023-05-19T09:51:08.317Z,1.52
2023-05-19T09:53:35.098Z,1.40
2023-05-19T09:56:02.306Z,1.55
2023-05-19T09:58:34.769Z,1.80
2023-05-19T10:01:01.743Z,1.48
2023-05-19T10:03:28.484Z,1.33
2023-05-19T10:05:55.323Z,1.58
2023-05-19T10:08:24.154Z,1.30
2023-05-19T10:10:50.926Z,1.73
2023-05-19T10:13:17.670Z,1.60
2023-05-19T10:15:57.443Z,1.50
2023-05-19T10:18:26.697Z,1.85
2023-05-19T10:20:53.558Z,1.67
2023-05-19T10:23:20.273Z,2.10
2023-05-19T10:25:47.872Z,2.08
2023-05-19T10:28:16.363Z,1.98
2023-05-19T10:30:45.546Z,1.80
2023-05-19T10:33:19.020Z,1.90
2023-05-19T10:35:54.594Z,2.30
2023-05-19T10:38:43.082Z,1.98
2023-05-19T10:41:24.766Z,1.85
2023-05-19T10:44:31.052Z,1.88
2023-05-19T10:46:57.853Z,2.05
2023-05-19T10:49:24.622Z,2.20
2023-05-19T10:51:56.164Z,2.00
2023-05-19T10:54:43.619Z,2.13
2023-05-19T10:57:15.016Z,2.10
2023-05-19T10:59:42.123Z,1.58
2023-05-19T11:02:09.218Z,2.40
2023-05-19T11:04:58.459Z,2.17
2023-05-19T11:07:25.280Z,2.50
2023-05-19T11:09:52.449Z,1.90
2023-05-19T11:12:24.799Z,2.40
2023-05-19T11:14:55.528Z,2.17
2023-05-19T11:17:23.802Z,2.75
2023-05-19T11:19:57.636Z,2.50
2023-05-19T11:22:26.161Z,2.10
2023-05-19T11:24:54.775Z,2.35
2023-05-19T11:27:22.962Z,2.13
2023-05-19T11:29:49.921Z,2.10
2023-05-19T11:32:16.721Z,2.20
2023-05-19T11:34:44.674Z,2.45
2023-05-19T11:37:11.568Z,2.10
2023-05-19T11:39:39.348Z,1.90
2023-05-19T11:42:06.378Z,2.38
2023-05-19T11:44:33.166Z,2.30
2023-05-19T11:47:00.182Z,2.13
2023-05-19T11:49:29.491Z,2.20
2023-05-19T11:51:56.340Z,2.50
2023-05-19T11:54:36.779Z,2.13
2023-05-19T11:57:03.949Z,2.33
2023-05-19T11:59:36.035Z,2.50
2023-05-19T12:02:14.094Z,1.95
2023-05-19T12:04:41.094Z,2.77
2023-05-19T12:07:08.284Z,2.97
2023-05-19T12:09:35.775Z,2.20
2023-05-19T12:12:03.055Z,2.15
2023-05-19T12:14:30.234Z,2.63
2023-05-19T12:16:57.602Z,2.30
2023-05-19T12:19:25.988Z,2.50
2023-05-19T12:21:53.276Z,2.30
2023-05-19T12:24:20.740Z,2.53
2023-05-19T12:26:50.248Z,2.38
2023-05-19T12:29:17.314Z,2.20
2023-05-19T12:31:46.586Z,2.35
2023-05-19T12:34:13.395Z,2.28
2023-05-19T12:36:41.480Z,2.20
2023-05-19T12:39:08.315Z,2.15
2023-05-19T12:41:35.036Z,2.10
2023-05-19T12:44:01.756Z,2.22
2023-05-19T12:46:29.030Z,1.83
2023-05-19T12:49:00.774Z,2.30
2023-05-19T12:51:27.549Z,1.92
2023-05-19T12:53:54.262Z,2.30
2023-05-19T12:56:21.315Z,2.30
2023-05-19T12:58:48.055Z,2.33
2023-05-19T13:01:18.674Z,2.50
2023-05-19T13:03:46.197Z,2.70
2023-05-19T13:06:13.148Z,3.00
2023-05-19T13:08:41.548Z,3.17
2023-05-19T13:11:08.297Z,3.05
2023-05-19T13:13:35.047Z,3.38
2023-05-19T13:16:01.824Z,2.83
2023-05-19T13:18:32.130Z,3.40
2023-05-19T13:20:58.978Z,2.60
2023-05-19T13:23:26.357Z,2.88
2023-05-19T13:25:53.185Z,3.30
2023-05-19T13:28:19.916Z,2.97
2023-05-19T13:30:46.797Z,2.80
2023-05-19T13:33:13.683Z,2.67
2023-05-19T13:35:40.548Z,2.38
2023-05-19T13:38:09.655Z,3.13
2023-05-19T13:40:36.913Z,2.80
2023-05-19T13:43:04.102Z,2.80
2023-05-19T13:45:30.933Z,3.00
2023-05-19T13:47:57.760Z,3.33
2023-05-19T13:50:24.570Z,2.75
2023-05-19T13:52:51.328Z,3.00
2023-05-19T13:55:18.348Z,2.70
2023-05-19T13:57:45.085Z,2.88
2023-05-19T14:00:12.190Z,2.63
2023-05-19T14:02:39.931Z,2.28
2023-05-19T14:05:07.581Z,2.80
2023-05-19T14:07:37.116Z,2.93
2023-05-19T14:10:06.832Z,2.72
2023-05-19T14:12:45.125Z,2.47
2023-05-19T14:15:21.474Z,3.05
2023-05-19T14:17:49.270Z,2.83
2023-05-19T14:20:16.197Z,2.53
2023-05-19T14:22:43.035Z,2.60
2023-05-19T14:25:09.977Z,2.40
2023-05-19T14:27:36.877Z,2.67
2023-05-19T14:30:03.903Z,2.60
2023-05-19T14:32:30.792Z,2.90
2023-05-19T14:34:57.608Z,2.30
2023-05-19T14:37:26.602Z,3.00
2023-05-19T14:39:53.641Z,2.70
2023-05-19T14:42:20.466Z,3.30
2023-05-19T14:44:47.355Z,3.33
2023-05-19T14:47:14.225Z,3.63
2023-05-19T14:49:41.074Z,3.58
2023-05-19T14:52:07.832Z,3.30
2023-05-19T14:54:34.672Z,3.47
2023-05-19T14:57:01.704Z,3.53
2023-05-19T14:59:29.739Z,3.75
2023-05-19T15:01:56.558Z,3.40
2023-05-19T15:04:23.499Z,3.92
2023-05-19T15:07:05.868Z,3.67
2023-05-19T15:09:36.835Z,4.60
2023-05-19T15:12:03.653Z,4.25
2023-05-19T15:14:30.979Z,4.40
2023-05-19T15:16:58.539Z,4.03
2023-05-19T15:19:26.187Z,3.88
2023-05-19T15:21:53.199Z,4.33
2023-05-19T15:24:20.062Z,4.70
2023-05-19T15:26:47.308Z,4.15
2023-05-19T15:29:14.186Z,4.25
2023-05-19T15:31:41.260Z,3.97
2023-05-19T15:34:08.386Z,3.80
2023-05-19T15:36:35.666Z,3.40
2023-05-19T15:39:03.793Z,3.90
2023-05-19T15:41:30.817Z,3.63
2023-05-19T15:44:00.212Z,3.28
2023-05-19T15:46:27.416Z,3.40
2023-05-19T15:48:54.307Z,3.45
2023-05-19T15:51:21.210Z,3.20
2023-05-19T15:53:48.146Z,3.50
2023-05-19T15:56:15.169Z,3.72
2023-05-19T15:58:42.174Z,3.97
2023-05-19T16:01:08.974Z,3.63
2023-05-19T16:03:35.903Z,3.75
2023-05-19T16:06:16.773Z,3.72
2023-05-19T16:08:43.529Z,3.80
2023-05-19T16:11:10.562Z,4.30
2023-05-19T16:13:37.279Z,3.78
2023-05-19T16:16:04.259Z,4.30
2023-05-19T16:18:31.075Z,4.28
2023-05-19T16:20:57.885Z,4.38
2023-05-19T16:23:25.114Z,4.00
2023-05-19T16:25:52.335Z,4.22
2023-05-19T16:28:19.489Z,4.18
2023-05-19T16:30:46.328Z,3.60
2023-05-19T16:33:13.188Z,4.05
2023-05-19T16:35:40.058Z,3.93
2023-05-19T16:38:06.916Z,3.97
2023-05-19T16:40:33.937Z,4.10
2023-05-19T16:43:01.160Z,4.35
2023-05-19T16:45:27.964Z,4.63
2023-05-19T16:47:54.904Z,4.57
2023-05-19T16:50:21.667Z,4.00
2023-05-19T16:52:48.470Z,4.40
2023-05-19T16:55:19.734Z,4.43
2023-05-19T16:57:47.063Z,4.60
2023-05-19T17:00:14.605Z,4.60
2023-05-19T17:02:41.566Z,5.00
2023-05-19T17:05:08.876Z,4.55
2023-05-19T17:07:35.692Z,4.95
2023-05-19T17:10:02.472Z,4.50
2023-05-19T17:12:29.259Z,5.00
2023-05-19T17:14:57.100Z,4.55
2023-05-19T17:17:23.895Z,5.05
2023-05-19T17:19:50.728Z,4.68
2023-05-19T17:22:17.552Z,4.82
2023-05-19T17:24:44.425Z,4.80
2023-05-19T17:27:11.201Z,4.85
2023-05-19T17:29:37.937Z,4.90
2023-05-19T17:32:05.004Z,4.70
2023-05-19T17:34:31.870Z,4.72
2023-05-19T17:36:58.613Z,4.97
2023-05-19T17:39:25.626Z,4.57
2023-05-19T17:41:52.410Z,4.93
2023-05-19T17:44:19.221Z,5.18
2023-05-19T17:46:46.047Z,5.00
2023-05-19T17:49:13.701Z,5.03
2023-05-19T17:51:40.950Z,5.50
2023-05-19T17:54:08.216Z,5.47
2023-05-19T17:56:35.084Z,5.70
2023-05-19T17:59:02.054Z,5.25
2023-05-19T18:01:29.096Z,5.13
2023-05-19T18:03:56.598Z,4.97
2023-05-19T18:06:23.464Z,5.45
2023-05-19T18:08:51.655Z,5.97
2023-05-19T18:11:18.901Z,5.60
2023-05-19T18:13:45.759Z,5.47
2023-05-19T18:16:12.538Z,6.13
2023-05-19T18:18:43.409Z,5.78
2023-05-19T18:21:17.734Z,5.60
2023-05-19T18:23:48.050Z,5.90
2023-05-19T18:26:15.542Z,6.40
2023-05-19T18:28:42.473Z,6.40
2023-05-19T18:31:11.000Z,6.35
2023-05-19T18:33:37.779Z,6.82
2023-05-19T18:36:04.764Z,6.63
2023-05-19T18:38:31.522Z,7.67
2023-05-19T18:40:59.224Z,7.22
2023-05-19T18:43:26.086Z,7.00
2023-05-19T18:45:53.009Z,7.20
2023-05-19T18:48:20.323Z,7.32
2023-05-19T18:50:47.171Z,6.60
2023-05-19T18:53:13.898Z,6.82
2023-05-19T18:55:40.837Z,6.68
2023-05-19T18:58:07.740Z,6.78
2023-05-19T19:00:37.590Z,6.75
2023-05-19T19:03:04.540Z,6.00
2023-05-19T19:05:31.432Z,6.20
2023-05-19T19:07:58.265Z,6.40
2023-05-19T19:10:25.066Z,6.03
2023-05-19T19:12:51.870Z,6.40
2023-05-19T19:15:18.640Z,6.33
2023-05-19T19:17:45.802Z,5.93
2023-05-19T19:20:13.038Z,5.70
2023-05-19T19:22:39.828Z,5.45
2023-05-19T19:25:06.901Z,5.97
2023-05-19T19:27:35.606Z,5.87
2023-05-19T19:30:02.576Z,5.57
2023-05-19T19:32:31.593Z,5.40
2023-05-19T19:34:58.436Z,5.15
2023-05-19T19:37:25.216Z,5.43
2023-05-19T19:39:52.009Z,5.67
2023-05-19T19:42:19.002Z,5.03
2023-05-19T19:44:46.051Z,5.07
2023-05-19T19:47:12.811Z,4.97
2023-05-19T19:49:39.653Z,5.10
2023-05-19T19:52:06.437Z,5.03
2023-05-19T19:54:33.189Z,4.80
2023-05-19T19:56:59.921Z,5.00
2023-05-19T19:59:27.001Z,5.05
2023-05-19T20:01:53.878Z,5.10
2023-05-19T20:04:20.856Z,5.27
2023-05-19T20:06:47.825Z,5.07
2023-05-19T20:09:14.641Z,5.50
2023-05-19T20:11:41.413Z,5.57
2023-05-19T20:14:08.193Z,5.10
2023-05-19T20:16:34.967Z,5.70
2023-05-19T20:19:01.814Z,5.47
2023-05-19T20:21:28.730Z,6.13
2023-05-19T20:23:55.489Z,6.20
2023-05-19T20:26:22.611Z,6.30
2023-05-19T20:28:49.384Z,6.87
2023-05-19T20:31:16.207Z,6.60
2023-05-19T20:33:43.024Z,6.72
2023-05-19T20:36:11.060Z,7.10
2023-05-19T20:38:37.876Z,6.70
2023-05-19T20:41:04.786Z,6.90
2023-05-19T20:43:32.175Z,6.60
2023-05-19T20:45:59.831Z,6.95
2023-05-19T20:48:26.833Z,6.05
2023-05-19T20:50:54.172Z,6.75
2023-05-19T20:53:21.668Z,7.30
2023-05-19T20:55:48.586Z,6.47
2023-05-19T20:58:15.545Z,6.38
2023-05-19T21:00:42.286Z,6.47
2023-05-19T21:03:09.164Z,6.55
2023-05-19T21:05:36.352Z,7.20
2023-05-19T21:08:03.230Z,6.97
2023-05-19T21:10:29.986Z,6.65
2023-05-19T21:12:58.867Z,6.70
2023-05-19T21:15:27.038Z,6.38
2023-05-19T21:17:53.902Z,6.23
2023-05-19T21:20:20.933Z,6.10
2023-05-19T21:22:47.704Z,5.72
2023-05-19T21:25:14.645Z,5.90
2023-05-19T21:27:41.475Z,5.78
2023-05-19T21:30:09.850Z,5.83
2023-05-19T21:32:36.669Z,5.55
2023-05-19T21:35:03.799Z,5.57
2023-05-19T21:37:30.537Z,4.88
2023-05-19T21:39:57.465Z,4.55
2023-05-19T21:42:24.215Z,5.03
2023-05-19T21:44:51.111Z,5.03
2023-05-19T21:47:17.868Z,4.72
2023-05-19T21:49:44.634Z,4.63
2023-05-19T21:52:11.506Z,4.50
2023-05-19T21:54:38.300Z,5.13
2023-05-19T21:57:05.633Z,4.45
2023-05-19T21:59:32.465Z,4.53
2023-05-19T22:01:59.295Z,4.60
2023-05-19T22:04:26.676Z,4.25
2023-05-19T22:06:53.456Z,3.97
2023-05-19T22:09:20.280Z,4.10
2023-05-19T22:11:47.130Z,4.03
2023-05-19T22:14:14.096Z,3.85
2023-05-19T22:16:41.126Z,4.00
2023-05-19T22:19:08.293Z,4.10
2023-05-19T22:21:35.175Z,3.72
2023-05-19T22:24:02.166Z,3.70
2023-05-19T22:26:29.036Z,3.47
2023-05-19T22:28:55.921Z,3.35
2023-05-19T22:31:22.713Z,3.37
2023-05-19T22:33:49.549Z,3.30
2023-05-19T22:36:16.574Z,3.60
2023-05-19T22:38:43.468Z,3.05
2023-05-19T22:41:10.301Z,3.30
2023-05-19T22:43:37.154Z,3.30
2023-05-19T22:46:04.158Z,3.25
2023-05-19T22:48:31.677Z,2.92
2023-05-19T22:50:58.471Z,3.13
2023-05-19T22:53:25.290Z,3.00
2023-05-19T22:55:52.157Z,3.33
2023-05-19T22:58:19.053Z,2.88
2023-05-19T23:00:46.010Z,3.13
2023-05-19T23:03:12.903Z,2.83
2023-05-19T23:05:40.345Z,2.70
2023-05-19T23:08:07.198Z,2.83
2023-05-19T23:10:34.026Z,2.83
2023-05-19T23:13:00.839Z,2.53
2023-05-19T23:15:27.631Z,2.63
2023-05-19T23:17:54.508Z,2.40
2023-05-19T23:20:21.326Z,2.70
2023-05-19T23:22:48.145Z,2.28
2023-05-19T23:25:15.016Z,2.30
2023-05-19T23:27:41.840Z,2.35
2023-05-19T23:30:09.138Z,2.30
2023-05-19T23:32:36.110Z,2.40
2023-05-19T23:35:16.814Z,2.70
2023-05-19T23:37:43.643Z,2.63
2023-05-19T23:40:10.680Z,2.38
2023-05-19T23:42:37.539Z,2.30
2023-05-19T23:45:04.844Z,2.10
2023-05-19T23:47:31.637Z,2.45
2023-05-19T23:49:58.570Z,2.50
2023-05-19T23:52:25.339Z,2.72
2023-05-19T23:54:52.122Z,2.25
2023-05-19T23:57:18.859Z,2.50
2023-05-19T23:59:45.807Z,2.13
